»·PEaware :: N617TD KSAF-KABQ

N617TD :: KSAF-KABQ

FLIGHT INFORMATION

Flight Status: Arrived
Operator: Privately registered:
United States
More flights under this callsign
Pilot: Thomas H. (30883)
Aircraft: CESSNA 172 SKYHAWK
(C172)
More flights by this aircraft type
Origin: KSAF Santa Fe Mun
United States
Destination: KABQ Albuquerque Intl Sunport
United States
More flights between these airports :: More routes between these airports
Route: +SAF V611 ABQ
File this flight plan on PilotEdge
Remarks:
Altitude:
(Current/Filed)
10,000ft
Speed:
(Current/Filed)
105kts
Departed: 01-Aug-20 03:43 PM
Arrived: 01-Aug-20 04:20 PM
Distance/Time
Traveled:
43nm/0:37
Distance/Time
To Go:
Arrived

Flight Plot

Page will automatically refresh every two minutes.


Map Options




Map Legend


Flown Route
Filed Route
Departure Airport
Arrival Airport
Navaid (VOR, NDB)
Fix

Horizontal Profiles

Position Reports

Time Latitude Longitude Heading Altitude Ground
Speed
01-Aug-20 14:53 35.616539 -106.085044 214 6352ft 0kts
01-Aug-20 14:54 35.616539 -106.085044 214 6352ft 0kts
01-Aug-20 14:55 35.616539 -106.085044 214 6352ft 0kts
01-Aug-20 14:56 35.616539 -106.085044 214 6352ft 0kts
01-Aug-20 14:57 35.616539 -106.085044 214 6352ft 0kts
01-Aug-20 14:58 35.616539 -106.085044 214 6352ft 0kts
01-Aug-20 14:59 35.616539 -106.085044 214 6352ft 0kts
01-Aug-20 15:00 35.616539 -106.085044 214 6352ft 0kts
01-Aug-20 15:01 35.616539 -106.085044 214 6352ft 0kts
01-Aug-20 15:02 35.616539 -106.085044 214 6352ft 0kts
01-Aug-20 15:03 35.616539 -106.085044 214 6352ft 0kts
01-Aug-20 15:04 35.616539 -106.085044 214 6352ft 0kts
01-Aug-20 15:05 35.616539 -106.085044 214 6352ft 0kts
01-Aug-20 15:06 35.616539 -106.085044 214 6352ft 0kts
01-Aug-20 15:07 35.616539 -106.085044 214 6352ft 0kts
01-Aug-20 15:08 35.616539 -106.085044 214 6352ft 0kts
01-Aug-20 15:09 35.616539 -106.085044 214 6352ft 0kts
01-Aug-20 15:10 35.616539 -106.085044 214 6352ft 0kts
01-Aug-20 15:11 35.616539 -106.085044 214 6352ft 0kts
01-Aug-20 15:12 35.616539 -106.085044 214 6352ft 0kts
01-Aug-20 15:13 35.616539 -106.085044 214 6352ft 0kts
01-Aug-20 15:14 35.616539 -106.085044 214 6352ft 0kts
01-Aug-20 15:15 35.616539 -106.085044 214 6352ft 0kts
01-Aug-20 15:16 35.616539 -106.085044 214 6352ft 0kts
01-Aug-20 15:17 35.616539 -106.085044 214 6352ft 0kts
01-Aug-20 15:18 35.616539 -106.085044 214 6352ft 0kts
01-Aug-20 15:19 35.616539 -106.085044 214 6352ft 0kts
01-Aug-20 15:20 35.616539 -106.085044 214 6352ft 0kts
01-Aug-20 15:21 35.616539 -106.085044 214 6352ft 0kts
01-Aug-20 15:22 35.616539 -106.085044 214 6352ft 0kts
01-Aug-20 15:23 35.616539 -106.085044 214 6352ft 0kts
01-Aug-20 15:28 35.616539 -106.085044 213 6352ft 0kts
01-Aug-20 15:29 35.616539 -106.085044 214 6352ft 0kts
01-Aug-20 15:30 35.616539 -106.085044 214 6352ft 0kts
01-Aug-20 15:31 35.616539 -106.085044 214 6352ft 0kts
01-Aug-20 15:32 35.616539 -106.085044 213 6352ft 0kts
01-Aug-20 15:33 35.616539 -106.085044 214 6352ft 0kts
01-Aug-20 15:34 35.616539 -106.085044 213 6352ft 0kts
01-Aug-20 15:35 35.616539 -106.085044 214 6352ft 0kts
01-Aug-20 15:36 35.616539 -106.085044 213 6352ft 0kts
01-Aug-20 15:37 35.616539 -106.085044 214 6352ft 0kts
01-Aug-20 15:38 35.616994 -106.085767 342 6352ft 14kts
01-Aug-20 15:39 35.618749 -106.085605 30 6352ft 11kts
01-Aug-20 15:41 35.623152 -106.081771 37 6352ft 25kts
01-Aug-20 15:42 35.626125 -106.079620 341 6352ft 2kts
01-Aug-20 15:43 35.622542 -106.083952 213 6356ft 70kts
01-Aug-20 15:44 35.603976 -106.097720 177 6782ft 81kts
01-Aug-20 15:45 35.591476 -106.075562 149 7278ft 85kts
01-Aug-20 15:46 35.568392 -106.067859 184 7682ft 83kts
01-Aug-20 15:47 35.543930 -106.063029 166 8032ft 95kts
01-Aug-20 15:48 35.526635 -106.077687 254 8447ft 83kts
01-Aug-20 15:49 35.525115 -106.104092 280 8860ft 79kts
01-Aug-20 15:50 35.517751 -106.130397 240 9130ft 89kts
01-Aug-20 15:51 35.506335 -106.156873 250 9537ft 81kts
01-Aug-20 15:52 35.496762 -106.182759 245 9838ft 85kts
01-Aug-20 15:53 35.484179 -106.209642 252 10068ft 96kts
01-Aug-20 15:54 35.474912 -106.241388 255 9989ft 100kts
01-Aug-20 15:55 35.463596 -106.272063 250 9946ft 98kts
01-Aug-20 15:56 35.454770 -106.303691 258 9959ft 95kts
01-Aug-20 15:56 35.448305 -106.330220 255 9992ft 98kts
01-Aug-20 15:58 35.437588 -106.366973 249 10070ft 98kts
01-Aug-20 15:59 35.428151 -106.399238 253 9985ft 109kts
01-Aug-20 15:59 35.418500 -106.426841 250 9907ft 109kts
01-Aug-20 16:00 35.404136 -106.458620 240 9938ft 106kts
01-Aug-20 16:01 35.389132 -106.490280 246 9965ft 107kts
01-Aug-20 16:03 35.370210 -106.526250 226 9993ft 110kts
01-Aug-20 16:03 35.346408 -106.538008 217 9986ft 114kts
01-Aug-20 16:04 35.335832 -106.571733 249 10014ft 109kts
01-Aug-20 16:05 35.317893 -106.601652 237 10056ft 110kts
01-Aug-20 16:06 35.295070 -106.626305 216 10013ft 113kts
01-Aug-20 16:07 35.270026 -106.648460 219 10036ft 110kts
01-Aug-20 16:08 35.241618 -106.663452 198 9931ft 114kts
01-Aug-20 16:09 35.211444 -106.674961 205 9868ft 113kts
01-Aug-20 16:10 35.184044 -106.692998 211 9917ft 112kts
01-Aug-20 16:11 35.156634 -106.710816 207 9419ft 110kts
01-Aug-20 16:12 35.130079 -106.728418 213 8776ft 107kts
01-Aug-20 16:13 35.106793 -106.753963 214 8082ft 112kts
01-Aug-20 16:14 35.078056 -106.760187 161 7457ft 106kts
01-Aug-20 16:15 35.055724 -106.738767 134 6869ft 102kts
01-Aug-20 16:16 35.043526 -106.706788 98 6244ft 114kts
01-Aug-20 16:17 35.045200 -106.666301 93 6400ft 114kts
01-Aug-20 16:18 35.044384 -106.633102 92 5798ft 77kts
01-Aug-20 16:19 35.044265 -106.612646 89 5312ft 28kts
01-Aug-20 16:20 35.043358 -106.612032 185 5312ft 0kts
01-Aug-20 16:21 35.043358 -106.612032 185 5312ft 0kts
01-Aug-20 16:22 35.042432 -106.612899 273 5312ft 4kts
01-Aug-20 16:23 35.040591 -106.613823 181 5312ft 11kts
01-Aug-20 16:24 35.036944 -106.614980 226 5312ft 15kts
01-Aug-20 16:25 35.036880 -106.616330 357 5312ft 0kts

Navigation Log

Ident Type
Flight plan parsing failed, navigation log unavailable